Time;durP1;ratioP1;P1;durP2;ratioP2;P2;SDS_P1;SDS_P2;PMS_P1;PMS_P2;Temp;Humidity;BMP_temperature;BMP_pressure;BME280_temperature;BME280_humidity;BME280_pressure;Samples;Min_cycle;Max_cycle;Signal;HPM_P1;HPM_P2
2021/05/11 00:01:58;;;;;;;2.37;2.17;;;19.70;99.90;;;;;;4955506;28;20472;-43
2021/05/11 00:04:25;;;;;;;3.03;2.73;;;19.60;99.90;;;;;;4955679;28;20462;-43
2021/05/11 00:06:51;;;;;;;4.90;2.30;;;19.60;99.90;;;;;;4955844;28;20486;-50
2021/05/11 00:09:17;;;;;;;4.20;2.50;;;19.60;99.90;;;;;;4955411;28;20491;-45
2021/05/11 00:11:44;;;;;;;5.13;2.40;;;19.60;99.90;;;;;;4955274;28;20748;-45
2021/05/11 00:14:10;;;;;;;3.83;1.90;;;19.60;99.90;;;;;;4955423;28;20464;-47
2021/05/11 00:16:36;;;;;;;2.00;1.90;;;19.60;99.90;;;;;;4955538;28;20456;-47
2021/05/11 00:19:07;;;;;;;6.67;2.40;;;19.50;99.90;;;;;;4959879;28;20764;-49
2021/05/11 00:24:09;;;;;;;3.10;2.77;;;19.50;99.90;;;;;;5104944;22;20523;-44
2021/05/11 00:26:38;;;;;;;2.10;1.90;;;19.50;99.90;;;;;;4964436;28;20447;-45
2021/05/11 00:29:04;;;;;;;6.63;2.23;;;19.50;99.90;;;;;;4963470;28;20504;-42
2021/05/11 00:31:31;;;;;;;9.93;2.90;;;19.50;99.90;;;;;;4960792;28;20513;-42
2021/05/11 00:33:57;;;;;;;3.13;2.23;;;19.50;99.90;;;;;;4964429;28;20950;-47
2021/05/11 00:36:24;;;;;;;8.53;2.77;;;19.50;99.90;;;;;;4965169;28;20456;-44
2021/05/11 00:38:51;;;;;;;3.73;2.40;;;19.40;99.90;;;;;;4960358;28;20454;-44
2021/05/11 00:41:17;;;;;;;2.70;2.50;;;19.50;99.90;;;;;;4960279;28;20448;-45
2021/05/11 00:43:43;;;;;;;2.87;1.93;;;19.40;99.90;;;;;;4964086;28;20463;-43
2021/05/11 00:46:10;;;;;;;2.43;2.17;;;19.40;99.90;;;;;;4968337;28;20449;-44
2021/05/11 00:48:37;;;;;;;5.10;2.47;;;19.40;99.90;;;;;;4967046;28;20471;-44
2021/05/11 01:01:25;;;;;;;3.50;2.50;;;19.30;99.90;;;;;;5935973;22;20419;-45
2021/05/11 01:03:51;;;;;;;5.00;2.90;;;19.30;99.90;;;;;;4963574;28;20789;-44
2021/05/11 01:11:28;;;;;;;4.43;2.50;;;19.30;99.90;;;;;;5537202;22;20476;-41
2021/05/11 01:13:55;;;;;;;4.10;1.90;;;19.50;99.90;;;;;;4944859;28;20455;-41
2021/05/11 01:16:21;;;;;;;2.63;2.03;;;19.30;99.90;;;;;;4945591;29;20449;-44
2021/05/11 01:18:49;;;;;;;3.03;2.00;;;19.30;99.90;;;;;;4943812;28;20493;-40
2021/05/11 01:26:30;;;;;;;4.20;2.70;;;19.00;99.90;;;;;;5678231;22;20487;-43
2021/05/11 01:29:05;;;;;;;9.00;3.00;;;19.00;99.90;;;;;;4963613;28;20615;-48
2021/05/11 01:31:56;;;;;;;3.43;2.67;;;19.00;99.90;;;;;;4960376;28;20921;-42
2021/05/11 01:50:31;;;;;;;3.17;2.97;;;18.70;99.90;;;;;;4946787;28;20617;-44
2021/05/11 01:53:34;;;;;;;2.90;2.60;;;18.70;99.90;;;;;;4973319;28;20459;-42
2021/05/11 01:56:10;;;;;;;3.17;2.60;;;18.70;99.90;;;;;;4973173;28;20447;-44
2021/05/11 02:24:43;;;;;;;6.30;3.60;;;18.50;99.90;;;;;;4951665;28;20435;-46
2021/05/11 03:03:25;;;;;;;3.17;2.87;;;18.40;99.90;;;;;;5222044;22;20483;-48
2021/05/11 03:05:52;;;;;;;2.77;2.57;;;18.40;99.90;;;;;;4954615;28;20940;-42
2021/05/11 03:08:18;;;;;;;4.47;3.43;;;18.30;99.90;;;;;;4952258;28;20448;-42
2021/05/11 03:39:14;;;;;;;4.70;3.70;;;18.10;99.90;;;;;;5814774;22;20483;-48
2021/05/11 03:41:43;;;;;;;4.27;3.87;;;18.10;99.90;;;;;;4971889;28;20470;-43
2021/05/11 03:44:12;;;;;;;4.00;3.37;;;18.00;99.90;;;;;;4972066;28;20454;-42
2021/05/11 03:46:38;;;;;;;4.67;4.07;;;18.00;99.90;;;;;;4971809;28;20458;-42
2021/05/11 03:49:06;;;;;;;4.93;3.70;;;18.00;99.90;;;;;;4971769;28;20478;-42
2021/05/11 03:51:33;;;;;;;8.33;4.50;;;18.00;99.90;;;;;;4972068;28;20515;-42
2021/05/11 03:53:59;;;;;;;6.83;4.90;;;17.90;99.90;;;;;;4971761;28;20533;-42
2021/05/11 03:56:26;;;;;;;8.60;4.70;;;17.90;99.90;;;;;;4971702;28;20447;-45
2021/05/11 04:22:12;;;;;;;7.43;5.50;;;17.80;99.90;;;;;;5815472;22;20541;-42
2021/05/11 04:24:38;;;;;;;9.00;4.97;;;17.80;99.90;;;;;;4957514;28;20459;-42
2021/05/11 04:27:05;;;;;;;6.50;4.90;;;17.90;99.90;;;;;;4957200;28;20805;-42
2021/05/11 04:29:31;;;;;;;7.70;5.40;;;17.90;99.90;;;;;;4957866;28;20487;-44
2021/05/11 04:31:57;;;;;;;5.90;5.10;;;17.90;99.90;;;;;;4956845;28;20889;-45
2021/05/11 04:34:23;;;;;;;8.03;5.87;;;17.90;99.90;;;;;;4955884;28;20456;-47
2021/05/11 04:36:49;;;;;;;6.27;5.63;;;17.90;99.90;;;;;;4955793;28;20447;-48
2021/05/11 04:39:17;;;;;;;8.90;5.20;;;18.00;99.90;;;;;;4955510;28;20974;-42
2021/05/11 04:41:43;;;;;;;6.30;5.63;;;18.10;99.90;;;;;;4955759;28;20460;-43
2021/05/11 04:44:10;;;;;;;9.57;5.60;;;18.10;99.90;;;;;;4955441;28;20455;-45
2021/05/11 04:46:44;;;;;;;7.23;5.07;;;18.20;99.90;;;;;;4955484;28;20935;-42
2021/05/11 04:49:10;;;;;;;6.90;4.80;;;18.20;99.90;;;;;;4955690;28;20575;-42
2021/05/11 04:51:36;;;;;;;8.67;5.20;;;18.40;99.90;;;;;;4955476;28;20455;-42
2021/05/11 04:54:03;;;;;;;10.30;6.50;;;18.40;99.90;;;;;;4955620;28;20444;-45
2021/05/11 04:56:30;;;;;;;11.17;5.20;;;18.50;99.90;;;;;;4955247;28;20452;-45
2021/05/11 04:58:56;;;;;;;7.80;5.30;;;18.60;99.90;;;;;;4955434;28;20475;-42
2021/05/11 05:01:23;;;;;;;8.83;5.43;;;18.60;99.90;;;;;;4965770;28;20458;-41
2021/05/11 05:03:52;;;;;;;5.90;4.83;;;18.60;99.90;;;;;;4974415;28;20951;-41
2021/05/11 05:06:18;;;;;;;6.63;5.00;;;18.70;99.90;;;;;;4974388;28;20511;-46
2021/05/11 05:08:44;;;;;;;7.03;5.50;;;18.70;99.90;;;;;;4974261;28;20482;-42
2021/05/11 05:11:14;;;;;;;6.63;4.90;;;18.80;99.90;;;;;;4974447;28;20459;-46
2021/05/11 05:13:41;;;;;;;6.50;5.23;;;18.80;99.90;;;;;;4974247;28;20443;-49
2021/05/11 05:16:07;;;;;;;13.20;6.00;;;18.90;99.90;;;;;;4975085;28;20583;-43
2021/05/11 05:18:33;;;;;;;11.30;7.43;;;19.00;99.90;;;;;;4975654;28;20458;-45
2021/05/11 05:21:03;;;;;;;14.30;5.80;;;19.10;99.90;;;;;;5419885;22;20467;-46
2021/05/11 05:23:33;;;;;;;9.87;5.60;;;19.20;99.90;;;;;;4965707;28;20549;-44
2021/05/11 05:26:02;;;;;;;8.23;5.00;;;19.20;99.90;;;;;;4966446;28;20943;-42
2021/05/11 05:28:28;;;;;;;8.57;5.63;;;19.20;99.90;;;;;;4963346;28;20459;-42
2021/05/11 05:30:55;;;;;;;17.33;5.53;;;19.20;99.90;;;;;;4965530;28;20461;-42
2021/05/11 05:33:29;;;;;;;6.87;5.63;;;19.30;99.90;;;;;;4966385;28;20974;-48
2021/05/11 05:35:56;;;;;;;10.00;5.67;;;19.40;99.90;;;;;;4962256;28;20869;-45
2021/05/11 05:38:22;;;;;;;11.60;5.50;;;19.40;99.90;;;;;;4961119;28;20467;-48
2021/05/11 05:40:55;;;;;;;4.90;4.50;;;19.50;99.90;;;;;;4966258;28;20443;-47
2021/05/11 05:43:21;;;;;;;9.47;5.70;;;19.60;99.90;;;;;;4964037;28;20491;-43
2021/05/11 05:45:48;;;;;;;7.00;4.80;;;19.60;99.90;;;;;;4960003;28;20459;-42
2021/05/11 05:48:15;;;;;;;5.73;5.23;;;19.70;99.90;;;;;;4963872;28;20625;-43
2021/05/11 05:50:41;;;;;;;6.40;4.83;;;19.80;99.90;;;;;;4966168;28;20562;-42
2021/05/11 05:53:13;;;;;;;9.20;6.10;;;19.90;99.90;;;;;;4961870;28;20509;-45
2021/05/11 05:55:39;;;;;;;8.20;4.90;;;20.00;99.90;;;;;;4964426;28;20471;-45
2021/05/11 05:58:05;;;;;;;10.23;5.07;;;20.10;99.90;;;;;;4966832;28;20450;-45
2021/05/11 06:00:31;;;;;;;5.47;4.97;;;20.20;99.90;;;;;;4959634;28;20452;-42
2021/05/11 06:03:04;;;;;;;10.93;5.50;;;20.30;99.90;;;;;;4958754;28;20987;-44
2021/05/11 06:05:32;;;;;;;11.83;5.90;;;20.40;99.90;;;;;;4958926;28;20432;-44
2021/05/11 06:07:59;;;;;;;7.30;5.87;;;20.50;99.90;;;;;;4959419;28;20836;-42
2021/05/11 06:10:28;;;;;;;5.40;4.50;;;20.60;99.90;;;;;;4959877;28;20483;-44
2021/05/11 06:12:57;;;;;;;13.57;5.43;;;20.60;99.90;;;;;;4959584;28;20519;-47
2021/05/11 06:18:04;;;;;;;9.73;5.70;;;20.80;99.90;;;;;;4959742;29;20447;-41
2021/05/11 06:20:31;;;;;;;6.70;5.10;;;21.00;99.90;;;;;;4959899;28;20457;-41
2021/05/11 06:22:57;;;;;;;10.37;5.13;;;21.10;99.90;;;;;;4958303;28;20480;-47
2021/05/11 06:25:24;;;;;;;5.43;4.80;;;21.20;99.90;;;;;;4958537;28;20454;-44
2021/05/11 06:27:56;;;;;;;6.97;5.47;;;21.40;99.90;;;;;;4959327;28;20451;-43
2021/05/11 06:30:22;;;;;;;8.43;6.37;;;21.50;99.90;;;;;;4958608;28;20468;-41
2021/05/11 06:32:48;;;;;;;7.97;4.90;;;21.50;99.90;;;;;;4957110;28;20601;-44
2021/05/11 06:35:15;;;;;;;9.37;5.30;;;21.60;99.90;;;;;;4956904;28;20459;-42
2021/05/11 06:37:42;;;;;;;6.73;5.07;;;21.70;99.90;;;;;;4956837;28;20463;-43
2021/05/11 06:40:09;;;;;;;8.10;5.30;;;21.80;99.90;;;;;;4957032;28;20451;-42
2021/05/11 06:42:38;;;;;;;6.80;4.53;;;21.90;99.90;;;;;;4954434;28;20447;-45
2021/05/11 06:45:12;;;;;;;8.17;5.40;;;22.10;99.90;;;;;;4953506;28;20503;-42
2021/05/11 06:47:57;;;;;;;6.20;5.60;;;22.20;99.90;;;;;;4954675;28;20452;-45
2021/05/11 06:50:33;;;;;;;4.60;4.20;;;22.30;99.90;;;;;;4954833;28;20501;-42
2021/05/11 06:55:45;;;;;;;7.17;4.50;;;22.60;99.90;;;;;;4954005;28;20451;-42
2021/05/11 06:58:12;;;;;;;5.40;4.80;;;22.80;99.90;;;;;;4954238;28;20558;-42
2021/05/11 07:00:42;;;;;;;9.00;4.27;;;23.00;99.90;;;;;;4954395;28;20452;-44
2021/05/11 07:03:08;;;;;;;11.73;8.50;;;23.20;99.90;;;;;;4952219;28;20452;-46
2021/05/11 07:05:36;;;;;;;6.63;5.93;;;23.40;99.90;;;;;;4953053;28;20448;-43
2021/05/11 07:08:10;;;;;;;11.23;6.63;;;23.50;99.90;;;;;;4952914;28;20460;-43
2021/05/11 07:10:37;;;;;;;8.50;5.87;;;23.60;99.90;;;;;;4952879;28;20476;-45
2021/05/11 07:13:09;;;;;;;8.00;5.40;;;23.80;99.90;;;;;;4953968;28;20455;-42
2021/05/11 07:15:35;;;;;;;9.10;4.90;;;23.80;99.90;;;;;;4954865;28;20565;-42
2021/05/11 07:18:09;;;;;;;5.00;4.20;;;23.80;99.90;;;;;;4955024;28;20529;-43
2021/05/11 07:20:36;;;;;;;9.10;4.87;;;24.20;99.90;;;;;;4957114;28;20757;-45
2021/05/11 07:23:03;;;;;;;7.07;4.90;;;24.40;99.90;;;;;;4953142;28;20491;-45
2021/05/11 07:25:34;;;;;;;6.37;5.60;;;24.70;99.90;;;;;;4952356;28;20460;-43
2021/05/11 07:30:46;;;;;;;6.13;5.43;;;24.70;99.90;;;;;;4952160;28;20474;-48
2021/05/11 07:33:13;;;;;;;7.30;5.40;;;24.70;99.90;;;;;;4952168;28;20937;-45
2021/05/11 07:35:40;;;;;;;13.40;12.00;;;24.60;99.90;;;;;;4952367;28;20468;-44
2021/05/11 07:38:08;;;;;;;11.63;10.43;;;24.80;99.90;;;;;;4952177;28;20459;-49
2021/05/11 07:40:35;;;;;;;7.23;4.80;;;25.60;99.90;;;;;;4951919;28;20443;-46
2021/05/11 07:43:01;;;;;;;6.60;4.10;;;27.00;98.40;;;;;;4951942;28;20467;-44
2021/05/11 07:45:32;;;;;;;6.27;4.70;;;28.40;94.90;;;;;;4951867;28;20446;-43
2021/05/11 08:02:04;;;;;;;8.00;4.77;;;30.00;77.60;;;;;;4956639;29;20490;-46
2021/05/11 08:04:35;;;;;;;8.47;5.27;;;30.40;74.80;;;;;;4955192;28;20932;-47
2021/05/11 08:09:57;;;;;;;4.53;4.13;;;30.50;70.30;;;;;;4951231;29;20471;-48
2021/05/11 08:15:19;;;;;;;6.67;4.83;;;30.10;70.30;;;;;;4954712;28;20451;-49
2021/05/11 08:17:51;;;;;;;8.00;4.70;;;30.20;69.40;;;;;;4955337;28;20766;-43
2021/05/11 08:20:35;;;;;;;8.40;4.93;;;30.60;68.10;;;;;;4954180;28;20790;-44
2021/05/11 08:23:21;;;;;;;6.70;4.70;;;31.00;66.30;;;;;;4951356;29;20553;-45
2021/05/11 08:28:32;;;;;;;4.77;4.33;;;32.60;61.70;;;;;;4953907;28;20442;-46
2021/05/11 08:30:58;;;;;;;9.90;5.20;;;33.80;58.60;;;;;;4954452;28;20495;-46
2021/05/11 08:33:24;;;;;;;6.10;5.07;;;34.70;55.80;;;;;;4954983;28;20452;-46
2021/05/11 08:35:51;;;;;;;8.40;4.40;;;35.10;53.60;;;;;;4954662;28;20928;-47
2021/05/11 08:38:18;;;;;;;7.93;4.30;;;35.70;50.90;;;;;;4953596;28;20543;-46
2021/05/11 08:40:44;;;;;;;5.93;5.40;;;35.80;50.30;;;;;;4955714;29;20527;-46
2021/05/11 08:43:29;;;;;;;5.80;4.00;;;36.10;48.60;;;;;;4954899;28;20447;-45
2021/05/11 08:45:56;;;;;;;4.27;3.97;;;36.60;47.20;;;;;;4953866;29;20470;-44
2021/05/11 08:48:23;;;;;;;5.63;4.60;;;37.30;45.30;;;;;;4953774;28;20452;-45
2021/05/11 08:50:55;;;;;;;6.90;5.10;;;37.90;45.10;;;;;;4955239;28;20828;-46
2021/05/11 08:53:45;;;;;;;4.47;4.07;;;37.80;43.20;;;;;;4955878;28;20448;-46
2021/05/11 09:04:43;;;;;;;5.97;5.37;;;38.20;42.20;;;;;;4951711;29;20415;-45
2021/05/11 09:24:43;;;;;;;8.40;7.53;;;39.00;41.30;;;;;;4951891;28;20938;-43
2021/05/11 09:27:22;;;;;;;6.30;5.10;;;39.20;40.20;;;;;;4951429;28;20443;-43
2021/05/11 09:30:07;;;;;;;5.63;4.87;;;38.80;39.10;;;;;;4952917;28;20494;-46
2021/05/11 09:32:52;;;;;;;9.13;6.07;;;38.40;40.20;;;;;;4954071;28;20542;-43
2021/05/11 09:56:18;;;;;;;6.00;4.80;;;38.10;39.80;;;;;;4953268;28;20432;-43
2021/05/11 10:42:25;;;;;;;9.40;5.40;;;34.90;44.90;;;;;;4953103;28;20444;-48
2021/05/11 10:48:15;;;;;;;8.10;6.10;;;34.60;45.60;;;;;;4965129;28;20442;-46
2021/05/11 10:50:48;;;;;;;16.83;15.03;;;34.40;46.00;;;;;;4959765;28;20480;-45
2021/05/11 10:53:44;;;;;;;14.53;12.70;;;34.30;45.90;;;;;;4956867;28;20482;-45
2021/05/11 10:56:52;;;;;;;7.57;5.43;;;34.00;46.20;;;;;;4956663;28;20897;-46
2021/05/11 10:59:31;;;;;;;7.90;4.97;;;33.70;47.00;;;;;;4954527;28;20487;-45
2021/05/11 11:02:01;;;;;;;9.40;5.90;;;33.40;47.90;;;;;;4956869;28;20451;-45
2021/05/11 11:04:32;;;;;;;8.50;5.60;;;33.30;48.30;;;;;;4958202;28;20847;-46
2021/05/11 11:07:07;;;;;;;8.30;6.00;;;33.30;48.70;;;;;;4959131;28;20451;-48
2021/05/11 11:09:34;;;;;;;7.03;5.40;;;33.10;48.20;;;;;;4953916;29;20487;-48
2021/05/11 11:12:03;;;;;;;6.80;4.60;;;33.10;47.80;;;;;;4956150;28;20455;-47
2021/05/11 11:14:42;;;;;;;6.50;5.90;;;32.90;48.00;;;;;;4957084;28;20554;-48
2021/05/11 11:17:09;;;;;;;8.60;5.53;;;33.00;48.10;;;;;;4957702;28;20488;-47
2021/05/11 11:19:36;;;;;;;6.93;5.90;;;32.90;48.80;;;;;;4966014;28;20457;-47
2021/05/11 11:24:52;;;;;;;7.53;6.17;;;32.70;50.40;;;;;;4956323;29;20443;-49
2021/05/11 11:27:25;;;;;;;6.07;5.47;;;32.70;49.80;;;;;;4956867;28;20539;-48
2021/05/11 11:30:00;;;;;;;7.23;5.53;;;32.60;49.70;;;;;;4956387;28;20487;-48
2021/05/11 11:32:29;;;;;;;6.60;5.90;;;32.50;49.20;;;;;;4959285;29;20463;-45
2021/05/11 11:34:59;;;;;;;10.73;7.07;;;32.40;50.20;;;;;;4959571;28;20510;-48
2021/05/11 11:37:27;;;;;;;6.83;5.30;;;32.30;50.50;;;;;;4959119;28;20512;-46
2021/05/11 11:39:55;;;;;;;8.10;5.30;;;32.20;49.90;;;;;;4958347;28;20552;-47
2021/05/11 11:42:23;;;;;;;6.77;5.83;;;32.20;50.10;;;;;;4956572;29;20451;-46
2021/05/11 11:44:54;;;;;;;5.73;5.13;;;32.20;49.80;;;;;;4959558;28;20517;-43
2021/05/11 11:47:23;;;;;;;7.30;5.27;;;32.10;49.80;;;;;;4958735;28;20467;-46
2021/05/11 11:49:52;;;;;;;5.30;4.77;;;31.90;50.10;;;;;;4959234;28;20574;-47
2021/05/11 11:52:24;;;;;;;7.27;4.57;;;31.60;49.90;;;;;;4963742;28;20505;-48
2021/05/11 11:55:07;;;;;;;6.33;5.30;;;31.50;50.00;;;;;;4968786;28;20428;-43
2021/05/11 11:57:53;;;;;;;7.00;4.90;;;31.50;49.90;;;;;;4966934;29;20434;-43
2021/05/11 12:00:23;;;;;;;11.80;5.80;;;31.50;50.00;;;;;;4953226;29;20919;-42
2021/05/11 12:02:55;;;;;;;4.97;4.50;;;31.20;50.20;;;;;;4955378;28;20939;-43
2021/05/11 12:05:22;;;;;;;7.67;6.80;;;31.20;51.20;;;;;;4950629;28;21066;-49
2021/05/11 12:10:32;;;;;;;6.40;5.80;;;31.30;53.10;;;;;;4951886;29;21030;-46
2021/05/11 12:13:03;;;;;;;6.90;5.40;;;31.40;51.40;;;;;;4955023;28;20459;-45
2021/05/11 12:15:29;;;;;;;5.03;4.53;;;31.40;50.70;;;;;;4954863;28;20459;-44
2021/05/11 12:18:01;;;;;;;5.70;5.07;;;31.50;50.70;;;;;;4954832;28;20486;-44
2021/05/11 12:20:28;;;;;;;5.60;4.43;;;31.50;50.20;;;;;;4953533;28;20451;-44
2021/05/11 12:23:09;;;;;;;5.60;4.90;;;31.50;50.30;;;;;;4954507;28;21018;-46
2021/05/11 12:25:37;;;;;;;5.53;4.93;;;31.60;49.40;;;;;;4950801;28;20502;-50
2021/05/11 12:28:03;;;;;;;6.73;5.40;;;31.60;50.30;;;;;;4954513;28;20460;-49
2021/05/11 12:30:39;;;;;;;5.77;4.90;;;31.60;51.10;;;;;;4953894;28;20487;-46
2021/05/11 12:33:10;;;;;;;11.27;7.87;;;31.50;50.60;;;;;;4950689;28;20455;-43
2021/05/11 12:35:37;;;;;;;8.87;8.00;;;31.50;50.40;;;;;;4954651;28;20460;-48
2021/05/11 12:38:15;;;;;;;5.50;4.90;;;31.50;50.90;;;;;;4954608;28;20925;-49
2021/05/11 12:40:46;;;;;;;5.53;5.03;;;31.50;50.80;;;;;;4951287;29;20447;-45
2021/05/11 12:43:12;;;;;;;7.03;5.67;;;31.30;51.00;;;;;;4953812;28;20451;-44
2021/05/11 12:45:52;;;;;;;5.90;5.30;;;31.10;51.60;;;;;;4954064;28;20456;-44
2021/05/11 12:48:19;;;;;;;6.70;4.90;;;30.90;52.10;;;;;;4953562;28;20451;-47
2021/05/11 12:50:46;;;;;;;7.70;5.80;;;30.90;51.80;;;;;;4954418;28;20491;-46
2021/05/11 12:53:34;;;;;;;5.83;5.10;;;31.00;53.20;;;;;;4949901;29;20483;-47
2021/05/11 12:56:16;;;;;;;8.30;5.67;;;30.90;52.40;;;;;;4953778;28;20449;-41
2021/05/11 12:58:57;;;;;;;10.27;5.47;;;30.90;52.80;;;;;;4953539;28;20979;-43
2021/05/11 13:01:31;;;;;;;10.03;5.07;;;30.80;52.80;;;;;;4954261;28;20509;-44
2021/05/11 13:15:41;;;;;;;11.17;5.07;;;31.00;53.40;;;;;;4958921;29;20412;-44
2021/05/11 13:21:16;;;;;;;5.67;5.03;;;30.80;52.70;;;;;;4967133;29;20395;-43
2021/05/11 13:26:29;;;;;;;8.47;5.23;;;30.80;52.70;;;;;;4960321;29;20474;-42
2021/05/11 13:29:00;;;;;;;6.10;5.57;;;30.80;54.40;;;;;;4965534;28;20447;-42
2021/05/11 13:31:32;;;;;;;5.10;4.70;;;30.90;53.50;;;;;;4962339;28;20549;-43
2021/05/11 13:34:09;;;;;;;5.33;4.77;;;31.00;52.60;;;;;;4960496;28;20451;-44
2021/05/11 13:36:37;;;;;;;12.23;5.47;;;30.90;52.40;;;;;;4956584;28;20505;-45
2021/05/11 13:39:04;;;;;;;7.10;5.37;;;30.80;52.70;;;;;;4966418;28;20443;-49
2021/05/11 13:41:31;;;;;;;9.33;6.20;;;30.80;53.60;;;;;;4963166;28;20444;-44
2021/05/11 13:43:57;;;;;;;5.40;4.80;;;30.80;52.70;;;;;;4967073;28;20513;-48
2021/05/11 13:46:23;;;;;;;5.33;4.83;;;30.70;52.00;;;;;;4962523;28;20447;-45
2021/05/11 13:48:49;;;;;;;6.27;5.13;;;30.80;52.80;;;;;;4964483;28;20459;-46
2021/05/11 13:51:18;;;;;;;6.47;5.83;;;30.80;52.50;;;;;;4963387;28;20491;-43
2021/05/11 13:53:47;;;;;;;8.13;5.03;;;30.80;52.50;;;;;;4961187;28;20533;-44
2021/05/11 14:04:31;;;;;;;5.30;4.83;;;30.90;52.90;;;;;;4962527;28;20427;-46
2021/05/11 14:06:58;;;;;;;7.27;6.47;;;30.90;52.90;;;;;;4957999;29;20460;-46
2021/05/11 14:09:25;;;;;;;6.77;6.00;;;30.80;52.60;;;;;;4960789;28;20514;-45
2021/05/11 14:11:51;;;;;;;8.83;5.50;;;30.80;52.50;;;;;;4964355;28;20452;-43
2021/05/11 14:14:17;;;;;;;10.07;7.67;;;30.70;52.40;;;;;;4966187;28;20443;-46
2021/05/11 14:16:45;;;;;;;12.67;11.40;;;30.80;52.30;;;;;;4957867;28;20472;-44
2021/05/11 14:19:12;;;;;;;5.73;5.20;;;30.80;52.60;;;;;;4966125;28;20448;-43
2021/05/11 14:21:40;;;;;;;10.30;5.90;;;30.80;52.50;;;;;;4964004;28;20464;-43
2021/05/11 14:24:08;;;;;;;16.70;5.33;;;30.90;52.50;;;;;;4963793;28;20480;-47
2021/05/11 14:26:35;;;;;;;7.73;6.27;;;30.90;52.90;;;;;;4967624;28;20467;-44
2021/05/11 14:29:01;;;;;;;6.07;5.47;;;30.90;52.80;;;;;;4958419;28;20490;-45
2021/05/11 14:31:28;;;;;;;7.17;5.10;;;30.90;53.00;;;;;;4963118;28;20483;-43
2021/05/11 14:33:54;;;;;;;6.20;4.93;;;31.00;52.80;;;;;;4962527;28;20456;-48
2021/05/11 14:36:21;;;;;;;5.60;4.83;;;31.10;52.10;;;;;;4957025;29;20463;-43
2021/05/11 14:38:48;;;;;;;5.83;4.63;;;31.00;52.70;;;;;;4956515;28;20467;-46
2021/05/11 14:41:14;;;;;;;9.30;5.50;;;30.90;51.60;;;;;;4958656;28;20425;-49
2021/05/11 14:43:43;;;;;;;8.00;4.93;;;30.80;52.20;;;;;;4957248;28;20463;-46
2021/05/11 14:46:10;;;;;;;5.97;5.30;;;30.90;52.80;;;;;;4965381;28;20439;-45
2021/05/11 14:48:37;;;;;;;8.00;5.50;;;30.80;52.80;;;;;;4961568;28;20447;-51
2021/05/11 14:51:05;;;;;;;5.30;4.80;;;30.80;52.60;;;;;;4959273;28;20494;-44
2021/05/11 14:53:31;;;;;;;7.77;6.50;;;30.90;53.20;;;;;;4958028;28;20540;-43
2021/05/11 14:55:58;;;;;;;7.60;6.80;;;30.80;52.60;;;;;;4963354;28;20435;-45
2021/05/11 14:58:25;;;;;;;8.20;5.73;;;30.80;53.10;;;;;;4963106;28;20459;-48
2021/05/11 15:00:52;;;;;;;8.53;6.53;;;30.80;53.70;;;;;;4967668;28;20470;-46
2021/05/11 15:03:18;;;;;;;13.53;6.27;;;30.90;54.80;;;;;;4969025;28;20454;-43
2021/05/11 15:05:44;;;;;;;5.80;5.30;;;30.90;54.10;;;;;;4961011;28;20443;-43
2021/05/11 15:08:11;;;;;;;6.13;5.37;;;30.90;54.30;;;;;;4961626;28;20448;-45
2021/05/11 15:10:38;;;;;;;12.47;5.80;;;30.80;54.50;;;;;;4966444;28;20571;-49
2021/05/11 15:13:04;;;;;;;6.53;6.03;;;30.80;54.00;;;;;;4961631;28;20848;-43
2021/05/11 15:15:31;;;;;;;7.60;6.57;;;30.70;54.50;;;;;;4957912;28;20455;-45
2021/05/11 15:18:03;;;;;;;6.47;5.30;;;30.60;55.00;;;;;;4960282;28;20900;-44
2021/05/11 15:20:29;;;;;;;5.83;5.30;;;30.50;55.00;;;;;;4961948;28;20444;-42
2021/05/11 15:22:56;;;;;;;10.93;5.80;;;30.50;55.50;;;;;;4963245;28;20456;-45
2021/05/11 15:25:27;;;;;;;7.90;4.97;;;30.50;55.50;;;;;;4962999;28;20448;-42
2021/05/11 15:27:54;;;;;;;5.03;4.53;;;30.40;56.00;;;;;;4959296;28;20488;-42
2021/05/11 15:30:22;;;;;;;6.73;6.00;;;30.30;56.00;;;;;;4959949;28;20807;-42
2021/05/11 15:32:53;;;;;;;8.10;5.47;;;30.30;56.00;;;;;;4963338;28;20787;-47
2021/05/11 15:35:23;;;;;;;7.30;6.60;;;30.10;56.80;;;;;;4962301;28;20889;-42
2021/05/11 15:37:56;;;;;;;6.87;6.27;;;29.90;58.40;;;;;;4963565;28;20529;-43
2021/05/11 15:40:24;;;;;;;6.77;6.17;;;29.80;59.50;;;;;;4962865;28;20508;-45
2021/05/11 15:42:51;;;;;;;12.83;7.73;;;29.70;59.70;;;;;;4965716;28;20450;-44
2021/05/11 15:45:18;;;;;;;7.27;6.60;;;29.70;60.70;;;;;;4963694;28;20440;-41
2021/05/11 15:47:53;;;;;;;5.73;5.13;;;29.70;59.60;;;;;;4962344;28;20443;-44
2021/05/11 15:50:26;;;;;;;7.03;5.73;;;29.70;59.80;;;;;;4959588;28;20566;-42
2021/05/11 15:52:53;;;;;;;9.00;6.60;;;29.60;59.80;;;;;;4961309;28;20773;-46
2021/05/11 15:55:20;;;;;;;6.80;6.13;;;29.30;60.70;;;;;;4962857;28;20754;-42
2021/05/11 15:57:46;;;;;;;6.87;6.27;;;29.20;62.10;;;;;;4959651;28;20857;-46
2021/05/11 16:00:13;;;;;;;7.17;6.47;;;29.00;62.50;;;;;;4962990;28;20522;-44
2021/05/11 16:02:39;;;;;;;8.10;6.03;;;28.90;63.70;;;;;;4961384;28;20471;-49
2021/05/11 16:05:07;;;;;;;6.90;6.20;;;28.60;64.10;;;;;;4962212;28;20438;-45
2021/05/11 16:07:34;;;;;;;14.20;7.53;;;28.40;65.00;;;;;;4963296;28;20463;-46
2021/05/11 16:10:03;;;;;;;9.77;6.80;;;28.20;65.70;;;;;;4960476;28;20493;-44
2021/05/11 16:12:29;;;;;;;8.80;6.43;;;28.20;66.10;;;;;;4963420;28;20448;-43
2021/05/11 16:14:55;;;;;;;7.80;7.10;;;28.10;66.80;;;;;;4961920;28;20436;-43
2021/05/11 16:17:21;;;;;;;7.70;6.70;;;28.00;66.70;;;;;;4963055;28;20898;-42
2021/05/11 16:19:48;;;;;;;9.03;6.90;;;27.80;67.40;;;;;;4964266;28;20882;-45
2021/05/11 16:22:14;;;;;;;7.17;6.57;;;27.70;67.40;;;;;;4967204;28;20477;-47
2021/05/11 16:24:41;;;;;;;10.80;7.87;;;27.70;67.10;;;;;;4964950;28;20581;-45
2021/05/11 16:27:08;;;;;;;6.43;5.83;;;27.60;67.80;;;;;;4965176;28;20508;-50
2021/05/11 16:29:34;;;;;;;8.37;7.00;;;27.40;68.60;;;;;;4966100;28;20974;-45
2021/05/11 16:32:01;;;;;;;9.37;6.17;;;27.40;69.20;;;;;;4963572;28;20451;-45
2021/05/11 16:34:27;;;;;;;6.93;6.33;;;27.40;69.20;;;;;;4965842;28;20459;-45
2021/05/11 16:36:53;;;;;;;7.77;7.03;;;27.30;69.80;;;;;;4964296;28;20927;-43
2021/05/11 16:39:20;;;;;;;8.07;7.27;;;27.20;70.00;;;;;;4964522;28;20497;-45
2021/05/11 16:41:47;;;;;;;7.57;6.87;;;27.20;69.90;;;;;;4964336;28;20548;-44
2021/05/11 16:44:13;;;;;;;7.30;6.60;;;27.20;70.00;;;;;;4965363;28;20455;-44
2021/05/11 16:46:39;;;;;;;21.17;7.50;;;27.30;69.50;;;;;;4964051;28;20448;-45
2021/05/11 16:49:06;;;;;;;8.60;6.17;;;27.20;69.70;;;;;;4964223;28;20791;-45
2021/05/11 16:51:32;;;;;;;8.40;6.83;;;27.10;70.10;;;;;;4962466;28;21041;-43
2021/05/11 16:53:58;;;;;;;6.80;6.20;;;27.00;70.50;;;;;;4965285;28;20457;-45
2021/05/11 16:56:24;;;;;;;12.93;7.50;;;27.00;71.10;;;;;;4964291;28;20443;-42
2021/05/11 16:58:51;;;;;;;8.77;7.87;;;27.00;71.70;;;;;;4959796;28;20487;-44
2021/05/11 17:01:18;;;;;;;9.67;6.50;;;26.90;72.70;;;;;;4968043;28;20911;-45
2021/05/11 17:03:44;;;;;;;6.83;6.13;;;26.80;73.10;;;;;;4968981;28;20510;-45
2021/05/11 17:06:10;;;;;;;7.67;6.83;;;26.70;73.30;;;;;;4954620;28;20463;-43
2021/05/11 17:08:36;;;;;;;12.30;6.43;;;26.60;73.30;;;;;;4954639;28;20484;-42
2021/05/11 17:11:02;;;;;;;10.57;7.17;;;26.60;74.00;;;;;;4954745;28;20483;-42
2021/05/11 17:13:29;;;;;;;6.23;5.60;;;26.50;74.70;;;;;;4954623;28;20452;-46
2021/05/11 17:15:56;;;;;;;7.47;6.77;;;26.50;75.40;;;;;;4949422;28;20524;-43
2021/05/11 17:18:22;;;;;;;8.17;7.33;;;26.40;75.80;;;;;;4935704;28;21001;-43
2021/05/11 17:20:48;;;;;;;8.20;6.50;;;26.40;76.60;;;;;;4935637;28;20502;-43
2021/05/11 17:23:15;;;;;;;6.73;6.13;;;26.40;76.80;;;;;;4935665;28;20476;-47
2021/05/11 17:25:43;;;;;;;9.23;7.90;;;26.30;77.20;;;;;;4935265;28;20936;-45
2021/05/11 17:28:11;;;;;;;10.07;6.50;;;26.30;77.20;;;;;;4934843;29;20448;-45
2021/05/11 17:30:39;;;;;;;7.40;6.70;;;26.30;77.80;;;;;;4935182;28;20990;-44
2021/05/11 17:33:06;;;;;;;7.67;6.80;;;26.20;77.80;;;;;;4935408;28;20496;-44
2021/05/11 17:35:33;;;;;;;7.67;6.27;;;26.20;78.50;;;;;;4935500;29;20898;-46
2021/05/11 17:38:01;;;;;;;7.27;6.20;;;26.10;79.10;;;;;;4935245;28;20461;-44
2021/05/11 17:40:27;;;;;;;8.83;7.40;;;26.20;79.40;;;;;;4935478;29;20444;-44
2021/05/11 17:42:54;;;;;;;9.60;7.00;;;26.10;80.30;;;;;;4935441;29;20460;-45
2021/05/11 17:45:24;;;;;;;5.97;5.40;;;25.90;81.60;;;;;;4935110;29;20488;-45
2021/05/11 17:47:58;;;;;;;7.83;6.17;;;25.80;83.10;;;;;;4935073;29;20477;-44
2021/05/11 17:50:27;;;;;;;7.33;5.57;;;25.70;83.90;;;;;;4934900;28;20578;-43
2021/05/11 17:52:54;;;;;;;6.13;5.63;;;25.60;85.70;;;;;;4935177;29;20452;-48
2021/05/11 17:55:21;;;;;;;6.27;5.60;;;25.50;88.70;;;;;;4934938;28;20480;-46
2021/05/11 17:57:48;;;;;;;5.70;5.10;;;25.40;90.50;;;;;;4934761;28;20452;-42
2021/05/11 18:00:15;;;;;;;8.53;5.30;;;25.40;92.00;;;;;;4934764;28;20453;-49
2021/05/11 18:02:41;;;;;;;6.50;5.23;;;25.30;94.00;;;;;;4934807;28;20460;-45
2021/05/11 18:05:11;;;;;;;5.90;4.67;;;25.20;96.10;;;;;;4935093;29;20457;-43